Time;durP1;ratioP1;P1;durP2;ratioP2;P2;SDS_P1;SDS_P2;PMS_P1;PMS_P2;Temp;Humidity;BMP_temperature;BMP_pressure;BME280_temperature;BME280_humidity;BME280_pressure;Samples;Min_cycle;Max_cycle;Signal;HPM_P1;HPM_P2
2021/06/13 00:01:15;;;;;;;8.67;4.87;;;15.40;99.90;;;16.46;100.00;98967.09;5099853;28;21062;-77
2021/06/13 00:03:43;;;;;;;6.40;4.10;;;15.30;99.90;;;16.42;100.00;98963.22;5096578;28;20455;-78
2021/06/13 00:06:11;;;;;;;9.77;4.70;;;15.30;99.90;;;16.42;100.00;98965.88;5096593;28;20458;-78
2021/06/13 00:08:39;;;;;;;11.60;4.70;;;15.30;99.90;;;16.34;100.00;98965.28;5088436;28;20454;-78
2021/06/13 00:11:09;;;;;;;8.90;4.60;;;15.20;99.90;;;16.37;100.00;98963.03;5086594;28;20459;-78
2021/06/13 00:13:37;;;;;;;7.90;4.20;;;15.30;99.90;;;16.32;100.00;98965.47;5089997;28;20626;-78
2021/06/13 00:16:07;;;;;;;12.10;4.30;;;15.20;99.90;;;16.23;100.00;98968.50;5095862;28;20512;-77
2021/06/13 00:18:37;;;;;;;8.50;4.90;;;15.20;99.90;;;16.23;100.00;98966.66;5103612;28;20482;-78
2021/06/13 00:21:06;;;;;;;11.07;4.33;;;15.20;99.90;;;16.19;100.00;98968.06;5096213;28;20495;-78
2021/06/13 00:23:34;;;;;;;10.43;4.53;;;15.10;99.90;;;16.07;100.00;98967.84;5097032;28;20458;-78
2021/06/13 00:26:18;;;;;;;10.03;4.87;;;15.00;99.90;;;16.16;100.00;98963.19;5093681;28;20493;-77
2021/06/13 00:28:47;;;;;;;10.07;4.30;;;15.10;99.90;;;16.01;100.00;98965.19;5093646;28;20456;-78
2021/06/13 00:31:15;;;;;;;6.53;4.50;;;14.90;99.90;;;15.87;100.00;98966.16;5095851;28;20465;-78
2021/06/13 00:33:44;;;;;;;8.60;3.53;;;14.70;99.90;;;15.95;100.00;98966.81;5093713;28;20469;-78
2021/06/13 00:36:13;;;;;;;7.43;4.30;;;14.80;99.90;;;15.87;100.00;98974.88;5091226;28;20512;-77
2021/06/13 00:38:41;;;;;;;8.13;4.47;;;14.70;99.90;;;15.81;100.00;98980.13;5089898;28;20455;-78
2021/06/13 00:41:10;;;;;;;12.00;5.10;;;14.60;99.90;;;15.73;100.00;98975.03;5088811;28;20550;-77
2021/06/13 00:43:38;;;;;;;15.43;5.43;;;14.60;99.90;;;15.81;100.00;98982.78;5089652;28;20532;-78
2021/06/13 00:46:06;;;;;;;10.50;4.63;;;14.60;99.90;;;15.75;100.00;98983.56;5091449;28;20517;-78
2021/06/13 00:48:34;;;;;;;7.90;4.27;;;14.60;99.90;;;15.79;100.00;98982.16;5094926;28;20925;-78
2021/06/13 00:51:04;;;;;;;7.10;4.60;;;14.70;99.90;;;15.73;100.00;98981.13;5101445;28;20463;-77
2021/06/13 00:53:34;;;;;;;7.90;4.00;;;14.60;99.90;;;15.64;100.00;98970.94;5093013;28;20463;-78
2021/06/13 00:56:02;;;;;;;8.97;4.40;;;14.50;99.90;;;15.50;100.00;98981.44;5097472;28;20455;-78
2021/06/13 00:58:31;;;;;;;7.73;4.57;;;14.30;99.90;;;15.39;100.00;98979.31;5090862;28;20450;-78
2021/06/13 01:00:59;;;;;;;8.00;4.40;;;14.20;99.90;;;15.39;100.00;98974.03;5082239;28;20548;-78
2021/06/13 01:03:27;;;;;;;5.60;4.00;;;14.30;99.90;;;15.46;100.00;98974.88;5087996;28;20494;-78
2021/06/13 01:05:55;;;;;;;15.07;4.33;;;14.30;99.90;;;15.33;100.00;98974.81;5090954;28;20911;-78
2021/06/13 01:08:38;;;;;;;8.33;4.00;;;14.10;99.90;;;15.37;100.00;98973.44;5094217;28;20444;-78
2021/06/13 01:11:19;;;;;;;10.33;3.60;;;14.20;99.90;;;15.22;100.00;98977.19;5093710;27;20456;-78
2021/06/13 01:14:01;;;;;;;10.17;3.77;;;14.00;99.90;;;15.20;100.00;98979.19;5094243;28;20455;-78
2021/06/13 01:16:42;;;;;;;5.60;3.70;;;14.00;99.90;;;15.07;100.00;98977.28;5087827;28;20912;-78
2021/06/13 01:19:33;;;;;;;8.77;4.10;;;14.00;99.90;;;14.96;100.00;98970.72;5087888;28;20452;-78
2021/06/13 01:22:24;;;;;;;7.83;4.00;;;13.80;99.90;;;14.91;100.00;98967.84;5091974;28;20491;-78
2021/06/13 01:25:15;;;;;;;5.37;3.43;;;13.80;99.90;;;14.96;100.00;98969.94;5098093;28;20466;-77
2021/06/13 01:28:08;;;;;;;9.30;4.20;;;13.80;99.90;;;14.97;100.00;98969.72;5090145;28;20463;-78
2021/06/13 01:30:39;;;;;;;5.10;3.80;;;13.80;99.90;;;14.94;100.00;98970.09;5092928;28;20454;-78
2021/06/13 01:33:12;;;;;;;7.33;4.20;;;13.80;99.90;;;14.92;100.00;98972.13;5098196;28;20481;-78
2021/06/13 01:35:42;;;;;;;11.13;4.30;;;13.80;99.90;;;14.88;100.00;98972.69;5091033;28;20967;-78
2021/06/13 01:38:13;;;;;;;9.13;3.80;;;13.70;99.90;;;14.77;100.00;98967.94;5081126;28;20830;-78
2021/06/13 01:40:43;;;;;;;6.07;3.77;;;13.60;99.90;;;14.90;100.00;98968.03;5079073;28;20483;-77
2021/06/13 01:43:15;;;;;;;10.50;3.67;;;13.80;99.90;;;14.90;100.00;98963.59;5094520;28;20451;-77
2021/06/13 01:45:47;;;;;;;5.10;3.50;;;13.80;99.90;;;14.81;100.00;98964.75;5099005;28;20511;-78
2021/06/13 01:48:17;;;;;;;6.43;3.47;;;13.70;99.90;;;14.79;100.00;98969.38;5095084;28;21639;-78
2021/06/13 01:50:46;;;;;;;7.23;3.40;;;13.60;99.90;;;14.78;100.00;98959.06;5095696;28;20469;-78
2021/06/13 01:53:17;;;;;;;10.90;3.57;;;13.60;99.90;;;14.66;100.00;98953.47;5098651;28;20459;-78
2021/06/13 01:55:47;;;;;;;8.57;3.27;;;13.50;99.90;;;14.57;100.00;98959.91;5094285;28;20459;-78
2021/06/13 01:58:18;;;;;;;4.80;3.13;;;13.40;99.90;;;14.47;100.00;98965.47;5093245;28;20452;-78
2021/06/13 02:00:51;;;;;;;13.80;3.47;;;13.30;99.90;;;14.44;100.00;98963.22;5089848;28;20572;-78
2021/06/13 02:03:20;;;;;;;6.27;3.23;;;13.20;99.90;;;14.40;100.00;98956.72;5090000;28;20459;-78
2021/06/13 02:05:51;;;;;;;9.53;3.00;;;13.20;99.90;;;14.45;100.00;98964.03;5099890;28;20467;-78
2021/06/13 02:08:21;;;;;;;8.00;2.83;;;13.30;99.90;;;14.35;100.00;98958.28;5087513;28;20594;-78
2021/06/13 02:10:52;;;;;;;9.20;3.40;;;13.20;99.90;;;14.22;100.00;98950.22;5087119;28;20870;-78
2021/06/13 02:13:21;;;;;;;4.47;2.60;;;13.10;99.90;;;14.21;100.00;98948.59;5091239;28;20520;-78
2021/06/13 02:15:51;;;;;;;10.80;3.37;;;13.00;99.90;;;14.33;100.00;98949.72;5094385;28;20515;-78
2021/06/13 02:18:22;;;;;;;13.77;3.33;;;13.20;99.90;;;14.34;100.00;98951.38;5090024;28;20512;-79
2021/06/13 02:20:51;;;;;;;3.87;2.87;;;13.20;99.90;;;14.44;100.00;98951.84;5091222;28;20513;-78
2021/06/13 02:23:19;;;;;;;5.40;2.93;;;13.30;99.90;;;14.28;100.00;98952.09;5091988;28;20897;-77
2021/06/13 02:25:47;;;;;;;8.30;3.53;;;13.10;99.90;;;14.33;100.00;98949.72;5084848;28;20543;-78
2021/06/13 02:28:16;;;;;;;5.53;3.30;;;13.20;99.90;;;14.14;100.00;98948.53;5079481;28;20463;-78
2021/06/13 02:30:52;;;;;;;5.97;3.10;;;13.00;99.90;;;14.13;100.00;98948.72;5085701;28;20467;-78
2021/06/13 02:33:22;;;;;;;7.67;3.03;;;13.00;99.90;;;14.17;100.00;98956.03;5095374;28;20454;-77
2021/06/13 02:35:54;;;;;;;5.43;2.73;;;13.00;99.90;;;14.17;100.00;98957.84;5094721;28;20462;-78
2021/06/13 02:38:22;;;;;;;7.50;3.00;;;13.00;99.90;;;14.10;100.00;98952.53;5089202;28;20454;-78
2021/06/13 02:40:53;;;;;;;2.90;2.50;;;12.90;99.90;;;14.16;100.00;98964.91;5088619;28;20875;-78
2021/06/13 02:43:21;;;;;;;6.47;3.20;;;13.00;99.90;;;14.16;100.00;98954.41;5085911;28;20463;-78
2021/06/13 02:45:51;;;;;;;12.27;3.73;;;13.00;99.90;;;13.92;100.00;98958.19;5086720;28;20467;-78
2021/06/13 02:48:20;;;;;;;5.63;2.57;;;12.80;99.90;;;13.91;100.00;98955.78;5093407;28;20532;-78
2021/06/13 02:50:48;;;;;;;5.70;2.97;;;12.70;99.90;;;13.96;100.00;98956.84;5088318;28;20455;-78
2021/06/13 02:53:30;;;;;;;7.63;2.83;;;12.80;99.90;;;14.01;100.00;98958.91;5090265;28;20448;-77
2021/06/13 02:56:06;;;;;;;5.40;3.43;;;12.90;99.90;;;13.75;100.00;98961.22;5079305;28;21032;-78
2021/06/13 02:58:43;;;;;;;8.20;3.10;;;12.60;99.90;;;13.80;100.00;98966.75;5086990;28;20486;-78
2021/06/13 03:01:18;;;;;;;6.80;3.47;;;12.70;99.90;;;13.85;100.00;98969.66;5078459;28;20484;-77
2021/06/13 03:03:46;;;;;;;7.50;2.70;;;12.70;99.90;;;13.63;100.00;98970.59;5086453;28;20443;-78
2021/06/13 03:06:19;;;;;;;5.63;2.83;;;12.50;99.90;;;13.57;100.00;98975.59;5088431;28;20482;-78
2021/06/13 03:08:49;;;;;;;11.10;3.33;;;12.40;99.90;;;13.57;100.00;98975.59;5087462;28;20524;-78
2021/06/13 03:11:20;;;;;;;6.40;3.10;;;12.40;99.90;;;13.48;100.00;98975.88;5081376;28;20452;-78
2021/06/13 03:13:51;;;;;;;8.27;3.30;;;12.30;99.90;;;13.33;100.00;98981.13;5088203;28;20493;-77
2021/06/13 03:16:22;;;;;;;11.57;3.27;;;12.20;99.90;;;13.42;100.00;98980.06;5094232;28;21047;-77
2021/06/13 03:18:51;;;;;;;3.90;2.80;;;12.30;99.90;;;13.44;100.00;98983.28;5089604;28;20873;-78
2021/06/13 03:21:20;;;;;;;7.37;3.17;;;12.30;99.90;;;13.47;100.00;98982.13;5090763;28;20494;-78
2021/06/13 03:23:49;;;;;;;7.43;3.10;;;12.30;99.90;;;13.43;100.00;98996.63;5087470;28;20459;-77
2021/06/13 03:26:18;;;;;;;4.73;2.70;;;12.30;99.90;;;13.38;100.00;98986.66;5086967;28;20462;-78
2021/06/13 03:28:52;;;;;;;4.43;2.80;;;12.30;99.90;;;13.13;100.00;98995.78;5086823;28;20544;-78
2021/06/13 03:31:22;;;;;;;4.10;2.80;;;12.00;99.90;;;13.25;100.00;98994.38;5087640;28;21812;-78
2021/06/13 03:33:53;;;;;;;9.47;3.17;;;12.10;99.90;;;13.35;100.00;98997.53;5086602;28;20513;-78
2021/06/13 03:36:25;;;;;;;5.83;2.67;;;12.20;99.90;;;13.28;100.00;98996.63;5081614;28;20468;-78
2021/06/13 03:38:57;;;;;;;7.73;2.87;;;12.20;99.90;;;13.21;100.00;98998.34;5087870;28;20459;-77
2021/06/13 03:41:26;;;;;;;5.93;2.73;;;12.10;99.90;;;13.31;100.00;98998.06;5083094;28;20552;-78
2021/06/13 03:43:56;;;;;;;7.43;3.80;;;12.20;99.90;;;13.24;100.00;98997.97;5084399;28;20454;-77
2021/06/13 03:46:26;;;;;;;6.73;2.80;;;12.10;99.90;;;13.20;100.00;99003.75;5090827;28;20902;-77
2021/06/13 03:48:57;;;;;;;7.03;2.67;;;12.10;99.90;;;13.18;100.00;99014.47;5085497;28;20494;-78
2021/06/13 03:51:27;;;;;;;4.60;2.87;;;12.00;99.90;;;13.17;100.00;99015.44;5084693;28;20544;-78
2021/06/13 03:53:58;;;;;;;24.87;3.40;;;12.00;99.90;;;13.19;100.00;99017.91;5089165;28;20458;-77
2021/06/13 03:56:37;;;;;;;7.63;2.73;;;12.10;99.90;;;13.29;100.00;99018.47;5087735;28;20451;-78
2021/06/13 03:59:06;;;;;;;8.67;2.40;;;12.20;99.90;;;13.30;100.00;99020.88;5082672;28;20451;-77
2021/06/13 04:01:39;;;;;;;7.47;3.07;;;12.20;99.90;;;13.36;100.00;99024.63;5082436;28;20487;-78
2021/06/13 04:04:10;;;;;;;3.33;2.60;;;12.30;99.90;;;13.31;100.00;99027.78;5089748;28;20455;-78
2021/06/13 04:06:42;;;;;;;10.63;3.10;;;12.20;99.90;;;13.32;100.00;99024.16;5085213;28;20450;-78
2021/06/13 04:09:12;;;;;;;4.03;2.60;;;12.20;99.90;;;13.23;100.00;99029.66;5086201;28;20507;-82
2021/06/13 04:11:42;;;;;;;12.50;4.87;;;12.20;99.90;;;13.32;100.00;99029.44;5086235;28;20471;-78
2021/06/13 04:14:13;;;;;;;6.50;2.77;;;12.30;99.90;;;13.29;100.00;99024.53;5083143;28;20748;-77
2021/06/13 04:16:47;;;;;;;13.00;2.67;;;12.20;99.90;;;13.31;100.00;99033.03;5078102;28;20535;-78
2021/06/13 04:19:17;;;;;;;5.47;3.20;;;12.30;99.90;;;13.44;100.00;99032.41;5080120;28;20925;-79
2021/06/13 04:21:47;;;;;;;8.40;2.90;;;12.50;99.90;;;13.36;100.00;99030.66;5084358;28;20524;-78
2021/06/13 04:24:18;;;;;;;4.33;2.97;;;12.30;99.90;;;13.32;100.00;99039.94;5083030;28;20467;-77
2021/06/13 04:26:48;;;;;;;6.37;2.93;;;12.20;99.90;;;13.43;100.00;99046.56;5090348;28;20488;-78
2021/06/13 04:29:17;;;;;;;6.40;2.97;;;12.40;99.90;;;13.46;100.00;99051.44;5096140;28;20442;-77
2021/06/13 04:31:47;;;;;;;7.33;2.70;;;12.40;99.90;;;13.48;100.00;99062.59;5096576;28;20839;-77
2021/06/13 04:34:15;;;;;;;7.43;2.93;;;12.40;99.90;;;13.40;100.00;99058.22;5086329;28;20926;-77
2021/06/13 04:36:44;;;;;;;5.03;3.40;;;12.40;99.90;;;13.39;100.00;99056.63;5095609;28;20621;-77
2021/06/13 04:39:12;;;;;;;6.63;2.80;;;12.30;99.90;;;13.33;100.00;99057.31;5103265;28;20518;-77
2021/06/13 04:41:41;;;;;;;5.20;3.03;;;12.20;99.90;;;13.32;100.00;99066.19;5097940;28;20488;-77
2021/06/13 04:44:09;;;;;;;15.23;3.87;;;12.20;99.90;;;13.31;100.00;99069.00;5097403;28;20896;-76
2021/06/13 04:46:38;;;;;;;3.80;2.80;;;12.20;99.90;;;13.51;100.00;99076.19;5094448;28;20895;-77
2021/06/13 04:49:08;;;;;;;6.60;2.93;;;12.40;99.90;;;13.61;100.00;99071.47;5088448;28;20451;-77
2021/06/13 04:51:37;;;;;;;7.47;3.20;;;12.50;99.90;;;13.66;100.00;99067.47;5090466;28;20471;-77
2021/06/13 04:54:39;;;;;;;7.07;3.30;;;12.70;99.90;;;13.67;100.00;99069.94;5091008;28;20460;-77
2021/06/13 04:57:40;;;;;;;5.03;2.77;;;12.70;99.90;;;13.72;100.00;99072.84;5090509;28;20883;-78
2021/06/13 05:00:09;;;;;;;3.67;2.50;;;12.80;99.90;;;13.80;100.00;99069.31;5089018;28;20951;-78
2021/06/13 05:02:40;;;;;;;6.97;2.57;;;12.90;99.90;;;13.80;100.00;99074.56;5084591;28;20551;-78
2021/06/13 05:05:12;;;;;;;11.43;3.20;;;12.90;99.90;;;13.85;100.00;99066.94;5086552;28;20464;-78
2021/06/13 05:07:40;;;;;;;9.17;2.73;;;12.90;99.90;;;13.98;100.00;99073.19;5096493;28;20455;-77
2021/06/13 05:10:11;;;;;;;5.27;3.50;;;13.00;99.90;;;13.97;100.00;99065.47;5102129;28;20508;-77
2021/06/13 05:12:49;;;;;;;6.37;3.33;;;13.00;99.90;;;13.94;100.00;99066.66;5100799;28;20431;-78
2021/06/13 05:15:20;;;;;;;5.60;2.93;;;12.90;99.90;;;14.00;100.00;99083.50;5089777;28;20464;-81
2021/06/13 05:17:50;;;;;;;9.43;2.90;;;13.00;99.90;;;14.02;100.00;99081.53;5086991;28;20502;-77
2021/06/13 05:20:21;;;;;;;8.40;3.30;;;13.10;99.90;;;14.09;100.00;99085.84;5089711;28;20462;-77
2021/06/13 05:22:56;;;;;;;4.57;3.10;;;13.20;99.90;;;14.11;100.00;99077.78;5088660;28;20536;-77
2021/06/13 05:25:29;;;;;;;7.20;3.33;;;13.20;99.90;;;14.23;100.00;99089.47;5096741;28;20501;-77
2021/06/13 05:27:58;;;;;;;9.53;3.60;;;13.30;99.90;;;14.27;100.00;99076.75;5090479;28;20439;-77
2021/06/13 05:30:28;;;;;;;3.53;2.50;;;13.30;99.90;;;14.27;100.00;99084.66;5084980;28;20463;-77
2021/06/13 05:32:57;;;;;;;3.40;2.70;;;13.30;99.90;;;14.37;100.00;99083.38;5085868;28;20739;-77
2021/06/13 05:35:29;;;;;;;10.50;3.13;;;13.40;99.90;;;14.44;100.00;99086.91;5088379;28;20471;-79
2021/06/13 05:37:58;;;;;;;18.70;3.80;;;13.50;99.90;;;14.51;100.00;99093.06;5085561;28;20837;-78
2021/06/13 05:40:29;;;;;;;11.83;4.00;;;13.50;99.90;;;-140.29;100.00;66074.13;5089035;28;20504;-81
2021/06/13 05:42:58;;;;;;;38.23;19.43;;;13.60;99.90;;;-140.29;100.00;66074.13;5087545;28;20499;-78
2021/06/13 05:45:32;;;;;;;13.80;5.27;;;13.60;99.90;;;-140.29;100.00;66074.13;5091812;27;20524;-78
2021/06/13 05:48:01;;;;;;;7.27;4.00;;;13.70;99.90;;;-140.29;100.00;66074.13;5085117;28;20478;-77
2021/06/13 05:50:32;;;;;;;15.00;5.60;;;13.80;99.90;;;-140.29;100.00;66074.13;5087943;28;20463;-78
2021/06/13 05:53:01;;;;;;;12.50;5.17;;;13.90;99.90;;;-140.29;100.00;66074.13;5092136;28;20509;-77
2021/06/13 05:55:31;;;;;;;12.30;5.90;;;13.90;99.90;;;-140.29;100.00;66074.13;5091627;28;20455;-77
2021/06/13 05:58:00;;;;;;;11.33;5.63;;;14.00;99.90;;;-140.29;100.00;66074.13;5094080;28;20469;-77
2021/06/13 06:00:33;;;;;;;9.80;5.83;;;14.10;99.90;;;-140.29;100.00;66074.13;5091568;28;21017;-77
2021/06/13 06:03:04;;;;;;;13.57;5.80;;;14.20;99.90;;;-140.29;100.00;66074.13;5092971;28;20510;-78
2021/06/13 06:05:35;;;;;;;13.00;6.20;;;14.30;99.90;;;-140.29;100.00;66074.13;5086867;28;21073;-78
2021/06/13 06:08:05;;;;;;;10.73;6.03;;;14.40;99.90;;;-140.29;100.00;66074.13;5092437;28;20463;-78
2021/06/13 06:10:35;;;;;;;8.53;6.37;;;14.40;99.90;;;-140.29;100.00;66074.13;5093640;28;20509;-78
2021/06/13 06:13:05;;;;;;;11.40;5.90;;;14.60;99.90;;;-140.29;100.00;66074.13;5091577;28;20809;-78
2021/06/13 06:15:37;;;;;;;12.97;6.10;;;14.60;99.90;;;-140.29;100.00;66074.13;5091776;28;20826;-77
2021/06/13 06:18:06;;;;;;;12.30;6.20;;;14.60;99.90;;;-140.29;100.00;66074.13;5089115;28;20486;-78
2021/06/13 06:20:37;;;;;;;15.30;6.87;;;14.70;99.90;;;-140.29;100.00;66074.13;5098548;28;20911;-78
2021/06/13 06:23:06;;;;;;;12.03;6.43;;;14.80;99.90;;;-140.29;100.00;66074.13;5090702;28;20515;-78
2021/06/13 06:25:35;;;;;;;12.27;6.47;;;14.80;99.90;;;-140.29;100.00;66074.13;5084062;28;20508;-78
2021/06/13 06:28:05;;;;;;;13.77;7.47;;;14.80;99.90;;;-140.29;100.00;66074.13;5084404;28;20455;-78
2021/06/13 06:30:34;;;;;;;13.10;5.90;;;14.80;99.90;;;-140.29;100.00;66074.13;5079780;28;20455;-79
2021/06/13 06:33:02;;;;;;;16.93;6.90;;;14.80;99.90;;;-140.29;100.00;66074.13;5088723;28;20786;-78
2021/06/13 06:35:31;;;;;;;9.67;5.90;;;15.00;99.90;;;-140.29;100.00;66074.13;5087547;28;20455;-79
2021/06/13 06:38:01;;;;;;;14.40;6.63;;;15.00;99.90;;;-140.29;100.00;66074.13;5085791;28;20467;-78
2021/06/13 06:40:29;;;;;;;10.77;5.50;;;15.10;99.90;;;-140.29;100.00;66074.13;5090824;28;20455;-78
2021/06/13 06:42:58;;;;;;;23.23;7.30;;;15.10;99.90;;;-140.29;100.00;66074.13;5079269;28;20498;-78
2021/06/13 06:45:27;;;;;;;10.60;6.03;;;15.20;99.90;;;-140.29;100.00;66074.13;5088658;28;20463;-78
2021/06/13 06:47:56;;;;;;;18.00;7.77;;;15.20;99.90;;;-140.29;100.00;66074.13;5091780;28;20462;-77
2021/06/13 06:50:24;;;;;;;15.40;7.77;;;15.30;99.90;;;-140.29;100.00;66074.13;5084101;28;20459;-81
2021/06/13 06:52:53;;;;;;;20.73;9.97;;;15.30;99.90;;;-140.29;100.00;66074.13;5083454;28;20471;-78
2021/06/13 06:55:23;;;;;;;18.20;8.23;;;15.20;99.90;;;-140.29;100.00;66074.13;5091134;28;20468;-78
2021/06/13 06:57:52;;;;;;;17.80;8.47;;;15.20;99.90;;;-140.29;100.00;66074.13;5091825;28;20831;-78
2021/06/13 07:00:21;;;;;;;16.70;8.20;;;15.10;99.90;;;-140.29;100.00;66074.13;5090179;28;20466;-78
2021/06/13 07:02:49;;;;;;;16.33;7.90;;;15.20;99.90;;;-140.29;100.00;66074.13;5086843;28;20497;-79
2021/06/13 07:05:18;;;;;;;12.07;7.60;;;15.10;99.90;;;-140.29;100.00;66074.13;5091609;28;20458;-78
2021/06/13 07:07:46;;;;;;;20.53;7.40;;;15.10;99.90;;;-140.29;100.00;66074.13;5086805;28;20459;-78
2021/06/13 07:10:15;;;;;;;22.00;8.53;;;15.40;99.90;;;-140.29;100.00;66074.13;5090833;28;20507;-78
2021/06/13 07:12:45;;;;;;;18.63;7.93;;;15.40;99.90;;;-140.29;100.00;66074.13;5087918;28;20549;-78
2021/06/13 07:15:14;;;;;;;15.87;7.57;;;15.40;99.90;;;-140.29;100.00;66074.13;5089331;28;20546;-79
2021/06/13 07:17:43;;;;;;;21.37;7.93;;;15.40;99.90;;;-140.29;100.00;66074.13;5083969;28;20910;-78
2021/06/13 07:20:14;;;;;;;15.87;7.43;;;15.40;99.90;;;-140.29;100.00;66074.13;5087775;28;20504;-78
2021/06/13 07:22:43;;;;;;;12.37;8.20;;;15.40;99.90;;;-140.29;100.00;66074.13;5089746;28;20870;-78
2021/06/13 07:25:13;;;;;;;17.90;7.30;;;15.60;99.90;;;-140.29;100.00;66074.13;5084581;28;20459;-78
2021/06/13 07:27:42;;;;;;;16.73;7.37;;;15.60;99.90;;;-140.29;100.00;66074.13;5080945;28;20467;-78
2021/06/13 07:30:16;;;;;;;15.83;6.93;;;15.60;99.90;;;-140.29;100.00;66074.13;5086557;28;20463;-78
2021/06/13 07:32:45;;;;;;;15.83;6.80;;;15.50;99.90;;;-140.29;100.00;66074.13;5092861;28;20535;-78
2021/06/13 07:35:15;;;;;;;17.37;9.77;;;15.50;99.90;;;-140.29;100.00;66074.13;5075545;28;20546;-80
2021/06/13 07:37:44;;;;;;;12.80;7.53;;;15.60;99.90;;;-140.29;100.00;66074.13;5084080;28;20470;-78
2021/06/13 07:40:15;;;;;;;14.97;7.27;;;15.70;99.90;;;-140.29;100.00;66074.13;5092180;28;20502;-78
2021/06/13 07:42:44;;;;;;;16.20;7.80;;;15.80;99.90;;;-140.29;100.00;66074.13;5082186;28;20458;-78
2021/06/13 07:45:16;;;;;;;14.90;6.10;;;15.80;99.90;;;-140.29;100.00;66074.13;5084777;28;20479;-78
2021/06/13 07:47:45;;;;;;;16.13;6.50;;;15.80;99.90;;;-140.29;100.00;66074.13;5082107;28;20997;-79
2021/06/13 07:50:17;;;;;;;9.53;5.90;;;15.80;99.90;;;-140.29;100.00;66074.13;5086961;28;20522;-78
2021/06/13 07:52:48;;;;;;;14.10;6.87;;;15.90;99.90;;;-140.29;100.00;66074.13;5095542;28;20467;-79
2021/06/13 07:55:19;;;;;;;8.13;5.77;;;15.80;99.90;;;-140.29;100.00;66074.13;5092110;28;21302;-78
2021/06/13 07:57:49;;;;;;;14.27;7.10;;;15.70;99.90;;;-140.29;100.00;66074.13;5087383;28;20444;-79
2021/06/13 08:00:23;;;;;;;11.57;7.00;;;15.70;99.90;;;-140.29;100.00;66074.13;5086497;28;20202;-79
2021/06/13 08:02:53;;;;;;;12.40;6.50;;;15.80;99.90;;;-140.29;100.00;66074.13;5096162;28;20460;-79
2021/06/13 08:05:26;;;;;;;15.27;6.70;;;15.90;99.90;;;-140.29;100.00;66074.13;5090283;28;20530;-79
2021/06/13 08:07:57;;;;;;;80.03;45.03;;;15.90;99.90;;;-140.29;100.00;66074.13;5082798;28;20463;-78
2021/06/13 08:10:28;;;;;;;13.17;6.33;;;15.90;99.90;;;-140.29;100.00;66074.13;5084680;28;20463;-79
2021/06/13 08:12:58;;;;;;;13.30;5.87;;;15.90;99.90;;;-140.29;100.00;66074.13;5089822;28;20492;-78
2021/06/13 08:15:30;;;;;;;10.50;5.80;;;15.90;99.90;;;-140.29;100.00;66074.13;5095712;28;20764;-78
2021/06/13 08:17:59;;;;;;;13.80;5.67;;;16.10;99.90;;;-140.29;100.00;66074.13;5091960;28;20686;-79
2021/06/13 08:20:29;;;;;;;8.30;4.53;;;16.20;99.90;;;-140.29;100.00;66074.13;5096490;28;20458;-78
2021/06/13 08:22:59;;;;;;;9.50;4.93;;;16.20;99.90;;;-140.29;100.00;66074.13;5087821;28;20512;-79
2021/06/13 08:25:28;;;;;;;12.37;6.30;;;16.30;99.90;;;-140.29;100.00;66074.13;5086871;28;20489;-79
2021/06/13 08:27:56;;;;;;;9.40;5.73;;;16.30;99.90;;;-140.29;100.00;66074.13;5085547;28;20458;-79
2021/06/13 08:30:25;;;;;;;26.80;16.43;;;16.30;99.90;;;-140.29;100.00;66074.13;5088786;28;20516;-81
2021/06/13 08:32:57;;;;;;;23.07;11.20;;;16.40;99.90;;;-140.29;100.00;66074.13;5097852;28;20465;-79
2021/06/13 08:35:26;;;;;;;8.47;4.80;;;16.40;99.90;;;-140.29;100.00;66074.13;5086779;28;20467;-79
2021/06/13 08:37:57;;;;;;;8.70;4.67;;;16.40;99.90;;;-140.29;100.00;66074.13;5089846;28;20462;-78
2021/06/13 08:40:26;;;;;;;11.83;4.63;;;16.30;99.90;;;-140.29;100.00;66074.13;5088701;28;20498;-78
2021/06/13 08:42:54;;;;;;;13.57;4.20;;;16.20;99.90;;;-140.29;100.00;66074.13;5095059;28;20458;-78
2021/06/13 08:45:24;;;;;;;10.77;4.60;;;16.30;99.90;;;-140.29;100.00;66074.13;5083830;28;20765;-78
2021/06/13 08:47:57;;;;;;;12.83;4.20;;;16.30;99.90;;;-140.29;100.00;66074.13;5092231;28;20450;-78
2021/06/13 08:50:27;;;;;;;8.70;3.77;;;16.30;99.90;;;-140.29;100.00;66074.13;5090977;28;20467;-78
2021/06/13 08:52:55;;;;;;;6.43;4.10;;;16.30;99.90;;;-140.29;100.00;66074.13;5093793;28;20455;-79
2021/06/13 08:55:25;;;;;;;11.63;7.50;;;16.30;99.90;;;-140.29;100.00;66074.13;5090256;28;20463;-78
2021/06/13 08:57:55;;;;;;;5.47;3.93;;;16.30;99.90;;;-140.29;100.00;66074.13;5091433;28;20524;-78
2021/06/13 09:00:29;;;;;;;7.73;4.13;;;16.40;99.90;;;-140.29;100.00;66074.13;5093581;28;20455;-78
2021/06/13 09:02:59;;;;;;;7.13;4.13;;;16.50;99.90;;;-140.29;100.00;66074.13;5087465;28;20440;-78
2021/06/13 09:05:29;;;;;;;9.00;4.87;;;16.50;99.90;;;-140.29;100.00;66074.13;5091508;28;21261;-79
2021/06/13 09:07:59;;;;;;;8.30;3.67;;;16.70;99.90;;;-140.29;100.00;66074.13;5090881;28;20923;-78
2021/06/13 09:10:31;;;;;;;12.07;3.90;;;16.60;99.90;;;-140.29;100.00;66074.13;5088581;28;20450;-78
2021/06/13 09:13:15;;;;;;;9.80;4.23;;;16.70;99.90;;;-140.29;100.00;66074.13;5088762;28;20867;-78
2021/06/13 09:15:48;;;;;;;8.10;3.53;;;16.80;99.90;;;-140.29;100.00;66074.13;5091989;28;20482;-79
2021/06/13 09:18:41;;;;;;;7.43;4.07;;;16.80;99.90;;;-140.29;100.00;66074.13;5091073;28;20506;-78
2021/06/13 09:21:13;;;;;;;6.70;2.90;;;16.80;99.90;;;-140.29;100.00;66074.13;5088253;28;21030;-79
2021/06/13 09:23:43;;;;;;;9.83;4.33;;;16.80;99.90;;;-140.29;100.00;66074.13;5088149;28;20463;-78
2021/06/13 09:26:16;;;;;;;9.67;3.30;;;16.90;99.90;;;-140.29;100.00;66074.13;5088079;28;20462;-78
2021/06/13 09:28:47;;;;;;;4.97;3.40;;;16.90;99.90;;;-140.29;100.00;66074.13;5089042;28;20447;-78
2021/06/13 09:31:19;;;;;;;7.87;3.67;;;17.00;99.90;;;-140.29;100.00;66074.13;5089588;28;20459;-78
2021/06/13 09:33:52;;;;;;;6.53;3.70;;;16.90;99.90;;;-140.29;100.00;66074.13;5077610;28;20435;-78
2021/06/13 09:36:23;;;;;;;9.20;3.43;;;16.90;99.90;;;-140.29;100.00;66074.13;5091086;28;20443;-78
2021/06/13 09:38:58;;;;;;;10.50;4.03;;;16.90;99.90;;;-140.29;100.00;66074.13;5089989;28;20455;-78
2021/06/13 09:41:26;;;;;;;8.70;3.97;;;17.00;99.90;;;-140.29;100.00;66074.13;5086711;28;20512;-78
2021/06/13 09:43:57;;;;;;;8.37;4.00;;;17.00;99.10;;;-140.29;100.00;66074.13;5090198;28;20528;-78
2021/06/13 09:46:29;;;;;;;10.33;3.70;;;17.10;99.70;;;-140.29;100.00;66074.13;5094373;28;20462;-78
2021/06/13 09:49:04;;;;;;;6.60;3.00;;;17.10;99.90;;;-140.29;100.00;66074.13;5092994;28;20459;-79
2021/06/13 09:51:35;;;;;;;6.80;3.87;;;17.10;99.80;;;-140.29;100.00;66074.13;5086275;28;20466;-78
2021/06/13 09:54:07;;;;;;;10.10;3.03;;;17.20;99.50;;;-140.29;100.00;66074.13;5089704;28;20800;-78
2021/06/13 09:56:37;;;;;;;7.13;3.20;;;17.30;99.90;;;-140.29;100.00;66074.13;5093934;28;20510;-78
2021/06/13 09:59:09;;;;;;;19.80;3.67;;;17.40;99.10;;;-140.29;100.00;66074.13;5088567;28;20462;-78
2021/06/13 10:01:40;;;;;;;8.87;3.13;;;17.40;98.70;;;-140.29;100.00;66074.13;5089427;28;20519;-78
2021/06/13 10:04:28;;;;;;;15.83;3.20;;;17.50;98.40;;;-140.29;100.00;66074.13;5090317;28;20455;-78
2021/06/13 10:06:59;;;;;;;7.63;3.10;;;17.60;98.90;;;-140.29;100.00;66074.13;5084006;28;20518;-78
2021/06/13 10:09:37;;;;;;;10.10;5.57;;;17.60;98.70;;;-140.29;100.00;66074.13;5092155;28;20467;-80
2021/06/13 10:12:08;;;;;;;16.83;5.17;;;17.70;97.70;;;-140.29;100.00;66074.13;5089273;28;20515;-78
2021/06/13 10:14:39;;;;;;;4.83;3.13;;;17.70;97.60;;;-140.29;100.00;66074.13;5087859;28;20519;-79
2021/06/13 10:17:10;;;;;;;11.47;3.67;;;17.70;98.10;;;-140.29;100.00;66074.13;5082199;28;20953;-79
2021/06/13 10:19:42;;;;;;;5.20;3.00;;;17.80;97.80;;;-140.29;100.00;66074.13;5087225;28;20818;-79